Time;durP1;ratioP1;P1;durP2;ratioP2;P2;SDS_P1;SDS_P2;PMS_P1;PMS_P2;Temp;Humidity;BMP_temperature;BMP_pressure;BME280_temperature;BME280_humidity;BME280_pressure;Samples;Min_cycle;Max_cycle;Signal;HPM_P1;HPM_P2
2022/01/22 00:01:10;;;;;;;15.10;3.20;;;7.10;99.90;;;;;;4980219;28;20046;-60
2022/01/22 00:03:38;;;;;;;13.82;4.00;;;7.10;99.90;;;;;;4995747;28;20033;-60
2022/01/22 00:06:04;;;;;;;14.73;3.75;;;7.10;99.90;;;;;;4993185;28;20138;-61
2022/01/22 00:08:30;;;;;;;19.52;3.75;;;7.10;99.90;;;;;;4994021;28;20087;-60
2022/01/22 00:10:56;;;;;;;13.43;4.75;;;7.00;99.90;;;;;;4993334;28;20424;-61
2022/01/22 00:16:06;;;;;;;17.08;3.38;;;7.20;99.90;;;;;;4994621;28;20054;-61
2022/01/22 00:18:32;;;;;;;15.25;3.50;;;7.10;99.90;;;;;;4993321;28;20052;-61
2022/01/22 00:20:57;;;;;;;13.50;3.20;;;7.10;99.90;;;;;;5011053;28;20089;-61
2022/01/22 00:23:26;;;;;;;14.60;3.65;;;7.10;99.90;;;;;;4992721;28;20394;-61
2022/01/22 00:25:53;;;;;;;20.33;4.43;;;8.00;99.90;;;;;;4992548;28;20042;-61
2022/01/22 00:28:19;;;;;;;14.80;2.92;;;7.10;99.90;;;;;;5011168;28;20045;-61
2022/01/22 00:30:44;;;;;;;16.27;4.55;;;7.10;99.90;;;;;;4999183;28;20466;-61
2022/01/22 00:33:10;;;;;;;20.38;4.68;;;7.20;99.90;;;;;;5012712;28;20053;-61
2022/01/22 00:35:36;;;;;;;16.65;3.75;;;7.10;99.90;;;;;;5030929;28;20113;-61
2022/01/22 00:38:02;;;;;;;17.90;3.10;;;7.10;99.90;;;;;;5012449;28;20050;-61
2022/01/22 00:40:28;;;;;;;12.35;3.85;;;6.90;99.90;;;;;;5011885;28;20505;-61
2022/01/22 00:42:53;;;;;;;14.13;3.85;;;7.00;99.90;;;;;;5012773;28;20045;-61
2022/01/22 00:45:19;;;;;;;10.27;2.58;;;7.00;99.90;;;;;;5012960;28;20042;-61
2022/01/22 00:47:46;;;;;;;13.00;3.13;;;6.90;99.90;;;;;;5029223;28;20109;-61
2022/01/22 00:50:15;;;;;;;14.80;3.20;;;7.10;99.90;;;;;;5030423;28;20061;-61
2022/01/22 00:52:41;;;;;;;11.63;2.78;;;7.00;99.90;;;;;;5012294;28;20155;-61
2022/01/22 00:55:08;;;;;;;12.95;2.88;;;6.90;99.90;;;;;;5011891;28;20064;-61
2022/01/22 00:57:33;;;;;;;11.60;2.97;;;7.00;99.90;;;;;;5012899;28;20049;-61
2022/01/22 00:59:59;;;;;;;16.45;3.15;;;6.90;99.90;;;;;;4996421;28;20095;-61
2022/01/22 01:02:25;;;;;;;10.65;3.72;;;7.00;99.90;;;;;;4992717;28;20050;-61
2022/01/22 01:04:50;;;;;;;16.35;3.30;;;7.00;99.90;;;;;;4992922;28;20042;-61
2022/01/22 01:07:16;;;;;;;17.33;3.67;;;6.90;99.90;;;;;;4976847;28;20045;-61
2022/01/22 01:09:42;;;;;;;18.85;3.53;;;6.90;99.90;;;;;;4991986;28;20371;-61
2022/01/22 01:12:11;;;;;;;10.10;2.58;;;6.80;99.90;;;;;;4993147;28;20050;-61
2022/01/22 01:14:51;;;;;;;9.63;1.90;;;6.90;99.90;;;;;;4992414;28;20060;-61
2022/01/22 01:33:51;;;;;;;11.32;2.13;;;6.80;99.90;;;;;;4991240;28;20050;-61
2022/01/22 01:36:17;;;;;;;11.75;2.83;;;6.80;99.90;;;;;;4992513;28;20116;-61
2022/01/22 01:38:49;;;;;;;9.77;2.00;;;6.70;99.90;;;;;;4992145;28;20550;-61
2022/01/22 01:41:26;;;;;;;12.05;2.20;;;6.80;99.90;;;;;;4977012;28;20141;-61
2022/01/22 01:43:52;;;;;;;7.18;1.58;;;6.70;99.90;;;;;;4991238;28;20057;-61
2022/01/22 01:46:18;;;;;;;8.38;2.00;;;7.30;99.90;;;;;;5010125;28;20038;-61
2022/01/22 01:48:43;;;;;;;8.50;2.28;;;6.80;99.90;;;;;;4991985;28;20050;-61
2022/01/22 01:51:10;;;;;;;10.80;2.75;;;6.80;99.90;;;;;;4991804;28;20054;-61
2022/01/22 01:57:27;;;;;;;6.80;1.33;;;6.70;99.90;;;;;;5009076;28;20049;-61
2022/01/22 01:58:55;;;;;;;8.55;1.70;;;6.80;99.90;;;;;;5010910;28;20045;-61
2022/01/22 02:01:21;;;;;;;11.75;1.85;;;6.70;99.90;;;;;;5011939;28;20052;-61
2022/01/22 02:03:47;;;;;;;9.70;1.90;;;7.30;99.90;;;;;;5010863;28;20214;-61
2022/01/22 02:06:13;;;;;;;8.60;1.60;;;6.70;99.90;;;;;;5011524;28;20389;-61
2022/01/22 02:08:39;;;;;;;8.85;1.98;;;6.90;99.90;;;;;;5028966;28;20046;-61
2022/01/22 02:11:06;;;;;;;10.57;2.45;;;6.80;99.90;;;;;;4992890;28;20049;-61
2022/01/22 02:24:41;;;;;;;8.93;2.10;;;6.80;99.90;;;;;;5029473;28;20053;-61
2022/01/22 02:27:07;;;;;;;11.10;2.58;;;6.70;99.90;;;;;;5001439;28;20113;-61
2022/01/22 02:29:33;;;;;;;11.23;2.13;;;6.70;99.90;;;;;;4992055;28;20117;-61
2022/01/22 02:32:27;;;;;;;8.07;1.45;;;6.80;99.90;;;;;;4991094;28;20199;-61
2022/01/22 02:34:55;;;;;;;10.05;2.33;;;6.80;99.90;;;;;;4991176;28;20136;-61
2022/01/22 02:37:23;;;;;;;10.73;1.83;;;6.70;99.90;;;;;;4992639;28;20054;-61
2022/01/22 02:40:04;;;;;;;10.25;2.17;;;6.70;99.90;;;;;;4978541;28;20529;-61
2022/01/22 02:42:32;;;;;;;9.52;1.90;;;6.90;99.90;;;;;;5011458;28;20049;-61
2022/01/22 02:44:58;;;;;;;5.55;1.65;;;6.70;99.90;;;;;;5011359;28;20053;-61
2022/01/22 02:47:24;;;;;;;8.68;2.15;;;7.30;99.90;;;;;;5014198;28;20049;-61
2022/01/22 02:49:50;;;;;;;10.30;1.83;;;6.70;99.90;;;;;;5014084;28;20054;-60
2022/01/22 02:52:19;;;;;;;12.52;2.25;;;6.70;99.90;;;;;;5032541;28;20042;-61
2022/01/22 02:54:46;;;;;;;11.82;2.22;;;6.70;99.90;;;;;;5012954;28;20065;-61
2022/01/22 02:57:13;;;;;;;10.68;2.83;;;6.70;99.90;;;;;;5014801;28;20118;-61
2022/01/22 02:59:40;;;;;;;10.40;2.15;;;6.60;99.90;;;;;;5014693;28;20414;-61
2022/01/22 03:02:08;;;;;;;7.88;2.25;;;6.70;99.90;;;;;;5031612;28;20049;-61
2022/01/22 03:04:33;;;;;;;6.75;2.10;;;6.90;99.90;;;;;;5032153;28;20059;-61
2022/01/22 03:06:59;;;;;;;7.20;1.77;;;6.80;99.90;;;;;;5013972;28;20037;-61
2022/01/22 03:09:29;;;;;;;9.60;1.90;;;6.70;99.90;;;;;;4980575;28;20063;-61
2022/01/22 03:15:17;;;;;;;6.82;1.42;;;6.70;99.90;;;;;;4994416;28;20056;-61
2022/01/22 03:17:50;;;;;;;8.15;1.60;;;6.70;99.90;;;;;;4994946;28;20054;-61
2022/01/22 03:23:05;;;;;;;9.02;1.60;;;6.90;99.90;;;;;;5015913;28;20178;-61
2022/01/22 03:28:18;;;;;;;7.28;1.30;;;6.70;99.90;;;;;;5013252;28;20052;-61
2022/01/22 03:30:44;;;;;;;7.43;1.60;;;6.70;99.90;;;;;;5013948;28;20037;-61
2022/01/22 03:33:10;;;;;;;6.63;1.58;;;7.00;99.90;;;;;;5032139;28;20037;-61
2022/01/22 03:35:36;;;;;;;8.02;1.65;;;6.70;99.90;;;;;;5013341;28;20061;-61
2022/01/22 03:38:04;;;;;;;8.80;1.77;;;6.70;99.90;;;;;;5013534;28;20049;-61
2022/01/22 03:40:30;;;;;;;6.47;1.50;;;6.70;99.90;;;;;;5013873;28;20060;-61
2022/01/22 03:42:56;;;;;;;9.85;1.92;;;6.70;99.90;;;;;;5012583;28;20395;-61
2022/01/22 03:45:23;;;;;;;6.15;1.35;;;6.70;99.90;;;;;;5014019;28;20034;-61
2022/01/22 03:47:49;;;;;;;5.13;1.38;;;6.70;99.90;;;;;;5013038;28;20076;-61
2022/01/22 03:50:16;;;;;;;7.40;1.80;;;6.70;99.90;;;;;;5011232;28;20119;-61
2022/01/22 03:52:42;;;;;;;11.15;2.08;;;7.30;99.90;;;;;;4993966;28;20092;-61
2022/01/22 03:55:16;;;;;;;6.68;1.55;;;6.70;99.90;;;;;;4994289;28;20074;-61
2022/01/22 03:57:42;;;;;;;7.65;1.88;;;6.80;99.90;;;;;;4992004;28;20042;-61
2022/01/22 04:00:08;;;;;;;9.95;2.00;;;6.70;99.90;;;;;;4994296;28;20513;-61
2022/01/22 04:05:09;;;;;;;9.43;1.33;;;6.70;99.90;;;;;;4995595;28;20069;-61
2022/01/22 04:10:14;;;;;;;8.20;2.03;;;6.80;99.90;;;;;;5014153;28;20049;-61
2022/01/22 04:13:03;;;;;;;11.48;2.40;;;6.70;99.90;;;;;;5012359;28;20497;-61
2022/01/22 04:15:32;;;;;;;8.27;1.85;;;6.70;99.90;;;;;;5013476;28;20098;-61
2022/01/22 04:28:58;;;;;;;9.77;2.22;;;6.70;99.90;;;;;;4992345;28;20080;-61
2022/01/22 04:31:24;;;;;;;9.02;2.40;;;6.60;99.90;;;;;;4975489;28;20129;-61
2022/01/22 04:33:50;;;;;;;9.82;1.95;;;6.70;99.90;;;;;;4988066;28;20041;-61
2022/01/22 04:36:16;;;;;;;8.23;1.88;;;6.70;99.90;;;;;;5013125;28;20042;-60
2022/01/22 04:38:41;;;;;;;7.00;1.83;;;6.70;99.90;;;;;;5012195;28;20038;-61
2022/01/22 04:41:07;;;;;;;13.90;2.40;;;6.60;99.90;;;;;;5013044;28;20058;-61
2022/01/22 04:43:35;;;;;;;12.13;2.00;;;7.30;99.90;;;;;;5030912;28;20128;-61
2022/01/22 04:46:35;;;;;;;8.27;1.77;;;6.70;99.90;;;;;;5029433;28;20033;-61
2022/01/22 04:49:14;;;;;;;5.82;1.20;;;6.70;99.90;;;;;;4973652;28;20061;-61
2022/01/22 04:57:08;;;;;;;10.90;1.92;;;6.60;99.90;;;;;;4994003;28;20141;-61
2022/01/22 04:59:33;;;;;;;8.05;2.00;;;6.70;99.90;;;;;;4993285;28;20125;-61
2022/01/22 05:02:00;;;;;;;7.85;1.42;;;6.70;99.90;;;;;;4991861;28;20125;-61
2022/01/22 05:04:25;;;;;;;9.98;2.17;;;6.70;99.90;;;;;;4993651;28;20046;-61
2022/01/22 05:06:51;;;;;;;7.55;1.95;;;6.60;99.90;;;;;;5009562;28;20402;-61
2022/01/22 05:09:16;;;;;;;7.93;1.63;;;6.60;99.90;;;;;;4993044;28;20030;-61
2022/01/22 05:11:42;;;;;;;8.63;2.13;;;6.70;99.90;;;;;;4982517;28;20037;-61
2022/01/22 05:14:08;;;;;;;5.93;1.92;;;6.60;99.90;;;;;;5011905;28;20094;-61
2022/01/22 05:16:33;;;;;;;11.25;2.50;;;6.70;99.90;;;;;;5030152;28;20440;-61
2022/01/22 05:19:10;;;;;;;12.57;2.67;;;6.60;99.90;;;;;;4986723;28;20069;-60
2022/01/22 05:21:38;;;;;;;9.07;2.67;;;6.70;99.90;;;;;;4992250;28;20129;-61
2022/01/22 05:24:08;;;;;;;10.82;2.22;;;6.70;99.90;;;;;;4992471;28;20037;-61
2022/01/22 05:29:25;;;;;;;8.55;2.10;;;6.70;99.90;;;;;;5029034;28;20045;-61
2022/01/22 05:37:07;;;;;;;;;;;6.60;99.90;;;;;;5011589;28;20050;-61
2022/01/22 05:39:35;;;;;;;10.43;2.08;;;6.70;99.90;;;;;;5030175;28;19970;-60
2022/01/22 05:42:05;;;;;;;10.43;3.35;;;6.80;99.90;;;;;;4994480;28;20041;-61
2022/01/22 05:44:32;;;;;;;8.30;1.75;;;6.60;99.90;;;;;;5012310;28;20037;-61
2022/01/22 05:47:03;;;;;;;8.20;2.22;;;6.50;99.90;;;;;;5028868;28;20037;-61
2022/01/22 05:49:32;;;;;;;11.10;1.98;;;6.60;99.90;;;;;;5011584;28;20057;-61
2022/01/22 05:51:59;;;;;;;10.20;1.95;;;6.50;99.90;;;;;;5029499;28;20049;-60
2022/01/22 05:59:39;;;;;;;9.67;2.13;;;6.50;99.90;;;;;;4992026;28;20081;-61
2022/01/22 06:02:16;;;;;;;8.07;1.55;;;6.50;99.90;;;;;;4992457;28;20313;-61
2022/01/22 06:04:42;;;;;;;7.35;1.60;;;6.60;99.90;;;;;;5009144;28;20385;-61
2022/01/22 06:07:09;;;;;;;7.45;1.83;;;6.80;99.90;;;;;;5010093;28;20041;-61
2022/01/22 06:09:38;;;;;;;5.63;1.42;;;7.20;99.90;;;;;;4995882;28;20041;-61
2022/01/22 06:14:33;;;;;;;7.38;1.40;;;6.50;99.90;;;;;;5011624;28;20041;-61
2022/01/22 06:16:59;;;;;;;5.63;1.73;;;6.40;99.90;;;;;;4994922;28;20083;-61
2022/01/22 06:19:25;;;;;;;6.15;1.45;;;6.30;99.90;;;;;;5011617;28;20073;-61
2022/01/22 06:21:52;;;;;;;10.52;2.10;;;6.30;99.90;;;;;;5001879;28;20070;-60
2022/01/22 06:24:21;;;;;;;8.85;1.70;;;6.30;99.90;;;;;;5012429;28;20042;-60
2022/01/22 06:26:47;;;;;;;7.82;1.42;;;6.70;99.90;;;;;;4995467;28;20042;-61
2022/01/22 06:29:13;;;;;;;7.13;1.83;;;6.20;99.90;;;;;;4996125;28;20049;-61
2022/01/22 06:31:39;;;;;;;6.05;1.55;;;6.10;99.90;;;;;;5012108;28;20038;-61
2022/01/22 06:34:05;;;;;;;3.88;1.13;;;6.30;99.90;;;;;;4995986;28;20054;-60
2022/01/22 06:36:31;;;;;;;4.93;1.38;;;6.20;99.90;;;;;;4995397;28;20057;-60
2022/01/22 06:39:21;;;;;;;7.13;1.13;;;6.30;99.90;;;;;;5012105;28;20382;-61
2022/01/22 06:41:45;;;;;;;9.23;1.58;;;6.30;99.90;;;;;;5012334;28;20045;-61
2022/01/22 06:44:18;;;;;;;13.63;1.75;;;6.10;99.90;;;;;;5012935;28;20041;-60
2022/01/22 06:46:46;;;;;;;4.80;1.30;;;6.30;99.90;;;;;;5012148;28;20151;-60
2022/01/22 06:49:11;;;;;;;6.22;1.73;;;6.10;99.90;;;;;;5001231;28;20045;-61
2022/01/22 06:51:37;;;;;;;7.65;1.40;;;6.20;99.90;;;;;;5032389;28;20098;-60
2022/01/22 06:54:05;;;;;;;15.85;2.17;;;6.20;99.90;;;;;;5001447;28;20041;-61
2022/01/22 06:56:31;;;;;;;7.18;1.70;;;6.10;99.90;;;;;;5078641;28;20046;-61
2022/01/22 06:58:58;;;;;;;12.35;2.05;;;6.20;99.90;;;;;;5011985;28;20044;-60
2022/01/22 07:01:25;;;;;;;9.35;1.50;;;6.20;99.90;;;;;;4994595;28;20130;-60
2022/01/22 07:03:51;;;;;;;6.78;1.85;;;6.30;99.90;;;;;;5011949;28;20102;-61
2022/01/22 07:06:16;;;;;;;11.10;2.40;;;6.30;99.90;;;;;;4978024;28;20474;-60
2022/01/22 07:08:42;;;;;;;9.40;2.08;;;6.30;99.90;;;;;;4994316;28;20046;-60
2022/01/22 07:11:08;;;;;;;4.63;1.35;;;6.30;99.90;;;;;;4995434;28;20120;-60
2022/01/22 07:13:34;;;;;;;8.38;2.28;;;6.30;99.90;;;;;;4976988;28;20517;-61
2022/01/22 07:16:00;;;;;;;10.75;2.15;;;6.40;99.90;;;;;;5064181;28;20046;-61
2022/01/22 07:18:28;;;;;;;8.75;1.63;;;6.30;99.90;;;;;;5081013;28;20134;-61
2022/01/22 07:20:54;;;;;;;6.25;1.65;;;6.40;99.90;;;;;;5009274;28;20050;-61
2022/01/22 07:26:00;;;;;;;10.65;2.60;;;6.20;99.90;;;;;;5022907;28;20098;-61
2022/01/22 07:28:26;;;;;;;12.95;2.50;;;6.40;99.90;;;;;;4993659;28;20050;-60
2022/01/22 07:30:52;;;;;;;7.78;2.00;;;6.40;99.90;;;;;;5021253;28;20037;-60
2022/01/22 07:33:20;;;;;;;10.55;2.15;;;6.20;99.90;;;;;;5085054;28;20097;-61
2022/01/22 07:35:46;;;;;;;9.63;2.30;;;6.40;99.90;;;;;;5010853;28;20077;-61
2022/01/22 07:38:12;;;;;;;11.00;2.30;;;6.40;99.90;;;;;;4994589;28;20424;-60
2022/01/22 07:40:38;;;;;;;11.82;2.83;;;6.40;99.90;;;;;;4999023;28;20049;-61
2022/01/22 07:43:05;;;;;;;12.93;2.88;;;6.40;99.90;;;;;;5010898;28;20038;-61
2022/01/22 07:45:31;;;;;;;12.85;3.35;;;6.50;99.90;;;;;;5062924;28;20048;-61
2022/01/22 07:47:56;;;;;;;17.77;3.40;;;6.50;99.90;;;;;;5008423;28;20125;-61
2022/01/22 07:50:22;;;;;;;11.07;2.47;;;6.40;99.90;;;;;;4994247;28;20053;-61
2022/01/22 07:52:48;;;;;;;10.40;2.25;;;6.50;99.90;;;;;;4995232;28;20562;-61
2022/01/22 07:55:16;;;;;;;11.75;2.58;;;6.40;99.90;;;;;;4997116;28;20482;-61
2022/01/22 07:57:41;;;;;;;9.65;2.65;;;6.50;99.90;;;;;;5010958;28;20090;-60
2022/01/22 08:00:08;;;;;;;8.63;3.03;;;6.40;99.90;;;;;;5013565;28;20050;-60
2022/01/22 08:02:33;;;;;;;8.18;2.35;;;6.60;99.90;;;;;;5012548;28;20371;-61
2022/01/22 08:04:59;;;;;;;9.60;3.20;;;6.40;99.90;;;;;;5010838;28;20094;-61
2022/01/22 08:07:25;;;;;;;7.53;2.35;;;6.60;99.90;;;;;;5009892;28;20118;-60
2022/01/22 08:09:51;;;;;;;14.10;2.30;;;6.60;99.90;;;;;;4981052;28;20098;-61
2022/01/22 08:12:17;;;;;;;14.63;2.90;;;6.60;99.90;;;;;;5084427;28;20054;-61
2022/01/22 08:14:43;;;;;;;15.32;3.20;;;6.60;99.90;;;;;;5096651;28;20044;-61
2022/01/22 08:17:10;;;;;;;8.23;2.15;;;6.60;99.90;;;;;;5013582;28;20037;-60
2022/01/22 08:19:36;;;;;;;11.15;3.15;;;6.60;99.90;;;;;;4994264;28;20038;-61
2022/01/22 08:22:02;;;;;;;11.63;2.45;;;6.60;99.90;;;;;;4993416;28;20133;-60
2022/01/22 08:24:28;;;;;;;9.35;2.40;;;6.60;99.90;;;;;;5022778;28;20126;-61
2022/01/22 08:29:35;;;;;;;11.40;2.25;;;6.70;99.90;;;;;;4974182;28;20050;-61
2022/01/22 08:32:23;;;;;;;12.98;2.35;;;6.60;99.90;;;;;;4990521;28;20038;-60
2022/01/22 08:37:33;;;;;;;7.22;2.15;;;6.50;99.90;;;;;;4987057;28;20038;-61
2022/01/22 08:40:00;;;;;;;9.98;3.45;;;6.60;99.90;;;;;;4975470;28;20104;-61
2022/01/22 08:42:27;;;;;;;8.80;2.20;;;6.60;99.90;;;;;;4985738;28;20448;-61
2022/01/22 08:44:53;;;;;;;7.65;2.08;;;6.60;99.90;;;;;;5008036;28;20501;-60
2022/01/22 08:47:19;;;;;;;10.55;2.63;;;6.70;99.90;;;;;;5067158;28;20065;-61
2022/01/22 08:49:44;;;;;;;9.38;2.47;;;6.70;99.90;;;;;;4997959;28;20411;-60
2022/01/22 08:52:15;;;;;;;8.88;2.65;;;6.70;99.90;;;;;;4986686;28;20054;-61
2022/01/22 08:54:41;;;;;;;10.05;2.42;;;6.70;99.90;;;;;;5006305;28;20434;-61
2022/01/22 08:57:07;;;;;;;11.73;2.30;;;6.70;99.90;;;;;;4993886;28;20042;-60
2022/01/22 08:59:33;;;;;;;11.00;3.33;;;6.70;99.90;;;;;;5004946;28;20618;-60
2022/01/22 09:02:00;;;;;;;12.20;3.35;;;6.70;99.90;;;;;;4999085;28;20045;-61
2022/01/22 09:04:26;;;;;;;8.50;2.72;;;6.60;99.90;;;;;;5013218;28;20083;-60
2022/01/22 09:06:52;;;;;;;10.27;2.83;;;6.70;99.90;;;;;;5017200;28;20050;-61
2022/01/22 09:09:18;;;;;;;9.18;2.55;;;6.70;99.90;;;;;;4990436;28;20042;-60
2022/01/22 09:11:45;;;;;;;11.80;3.10;;;6.70;99.90;;;;;;4991440;28;20042;-61
2022/01/22 09:14:14;;;;;;;13.50;2.90;;;6.90;99.90;;;;;;4988768;28;20136;-61
2022/01/22 09:16:40;;;;;;;9.43;2.88;;;6.70;99.90;;;;;;4990246;28;20045;-60
2022/01/22 09:19:10;;;;;;;8.50;2.25;;;6.80;99.90;;;;;;4990121;28;20053;-60
2022/01/22 09:21:43;;;;;;;7.88;2.10;;;6.90;99.90;;;;;;4994733;28;20053;-61
2022/01/22 09:24:12;;;;;;;9.27;2.90;;;;;;;;;;5075345;28;20107;-61
2022/01/22 09:26:38;;;;;;;11.70;2.72;;;6.90;99.90;;;;;;5008111;28;20077;-60
2022/01/22 09:29:04;;;;;;;6.90;2.50;;;7.20;99.90;;;;;;4977846;28;20463;-60
2022/01/22 09:31:31;;;;;;;9.60;2.00;;;6.90;99.90;;;;;;4991522;28;20090;-60
2022/01/22 09:33:59;;;;;;;8.25;2.10;;;6.90;99.90;;;;;;5000649;28;20053;-60
2022/01/22 09:36:27;;;;;;;13.55;3.10;;;6.90;99.90;;;;;;5000308;28;20125;-60
2022/01/22 09:38:53;;;;;;;10.48;2.83;;;7.00;99.90;;;;;;5018257;28;20121;-60
2022/01/22 09:41:20;;;;;;;6.50;1.98;;;7.10;99.90;;;;;;4989610;28;20050;-60
2022/01/22 09:43:46;;;;;;;9.32;1.85;;;7.10;99.90;;;;;;5002924;28;20080;-61
2022/01/22 09:46:11;;;;;;;8.00;2.08;;;7.10;99.90;;;;;;4997621;28;20191;-61
2022/01/22 09:48:45;;;;;;;6.53;1.80;;;7.10;99.90;;;;;;4996396;28;20066;-60
2022/01/22 09:51:12;;;;;;;6.63;2.15;;;7.20;99.90;;;;;;4978060;28;20057;-60
2022/01/22 09:53:43;;;;;;;9.38;2.58;;;7.20;99.90;;;;;;4999968;28;20056;-60
2022/01/22 09:56:11;;;;;;;8.82;2.08;;;7.20;99.90;;;;;;4990931;28;20056;-60
2022/01/22 09:58:37;;;;;;;8.93;2.58;;;7.20;99.90;;;;;;4993965;28;20061;-60
2022/01/22 10:01:18;;;;;;;10.68;2.47;;;7.20;99.90;;;;;;4994568;28;20505;-60
2022/01/22 10:03:43;;;;;;;7.68;2.20;;;7.20;99.90;;;;;;5033284;28;20187;-61
2022/01/22 10:06:21;;;;;;;9.43;2.70;;;7.20;99.90;;;;;;5015943;28;20161;-61
2022/01/22 10:08:47;;;;;;;7.88;2.13;;;7.20;99.90;;;;;;4988253;28;20146;-61
2022/01/22 10:11:20;;;;;;;11.73;2.72;;;7.20;99.90;;;;;;4989715;28;20079;-61
2022/01/22 10:13:50;;;;;;;18.50;3.88;;;7.30;99.90;;;;;;4990161;28;20038;-61
2022/01/22 10:16:26;;;;;;;7.97;2.85;;;7.30;99.90;;;;;;4989421;28;20050;-60
2022/01/22 10:19:12;;;;;;;9.93;2.88;;;7.30;99.90;;;;;;5008791;28;20057;-60
2022/01/22 10:21:41;;;;;;;9.02;2.38;;;7.30;99.90;;;;;;4971566;28;20157;-61
2022/01/22 10:24:31;;;;;;;11.85;2.90;;;7.30;99.90;;;;;;4988862;28;20049;-60
2022/01/22 10:30:13;;;;;;;14.10;3.50;;;7.30;99.90;;;;;;5021732;28;20045;-61
2022/01/22 10:35:15;;;;;;;10.23;3.53;;;7.30;99.90;;;;;;4991790;28;20499;-61
2022/01/22 10:37:41;;;;;;;13.18;3.83;;;7.30;99.90;;;;;;4978899;28;20048;-61
2022/01/22 10:40:27;;;;;;;9.57;3.33;;;7.30;99.90;;;;;;4991094;28;20133;-60
2022/01/22 10:43:16;;;;;;;;;;;7.30;99.90;;;;;;5003624;28;20356;-61
2022/01/22 10:45:56;;;;;;;12.73;3.40;;;7.20;99.90;;;;;;4993404;28;19924;-61
2022/01/22 10:48:22;;;;;;;15.13;3.67;;;7.30;99.90;;;;;;4976691;28;20052;-62
2022/01/22 10:51:06;;;;;;;13.32;3.35;;;7.30;99.90;;;;;;5008364;28;20042;-62
2022/01/22 10:53:44;;;;;;;12.05;3.30;;;7.30;99.90;;;;;;5042509;28;20621;-61
2022/01/22 10:56:13;;;;;;;18.00;5.00;;;7.30;99.90;;;;;;4981574;28;20057;-62
2022/01/22 10:58:55;;;;;;;16.33;3.28;;;7.30;99.90;;;;;;4974036;28;20050;-61
2022/01/22 11:01:26;;;;;;;18.67;4.78;;;7.30;99.90;;;;;;4997509;28;20063;-61
2022/01/22 11:04:08;;;;;;;9.30;3.22;;;7.30;99.90;;;;;;4992415;28;20370;-61
2022/01/22 11:06:34;;;;;;;11.25;3.92;;;7.30;99.90;;;;;;5009986;28;20045;-61
2022/01/22 11:09:00;;;;;;;15.23;4.20;;;7.30;99.90;;;;;;4994239;28;20482;-61
2022/01/22 11:11:26;;;;;;;14.43;3.90;;;7.30;99.90;;;;;;4995138;28;20042;-61
2022/01/22 11:13:51;;;;;;;15.48;4.28;;;7.30;99.90;;;;;;4986985;28;20038;-61
2022/01/22 11:16:19;;;;;;;17.38;4.88;;;7.30;99.90;;;;;;5002895;28;20425;-61
2022/01/22 11:18:49;;;;;;;13.45;3.65;;;7.30;99.90;;;;;;5030045;28;20034;-61
2022/01/22 11:21:16;;;;;;;14.02;3.30;;;7.30;99.90;;;;;;4997607;28;20511;-61
2022/01/22 11:23:42;;;;;;;12.27;3.88;;;7.30;99.90;;;;;;4998865;28;20048;-61
2022/01/22 11:26:09;;;;;;;14.20;3.88;;;7.30;99.90;;;;;;5027990;28;20053;-61
2022/01/22 11:28:38;;;;;;;12.38;3.58;;;7.30;99.90;;;;;;5011862;28;20048;-61
2022/01/22 11:31:05;;;;;;;13.77;3.65;;;7.30;99.90;;;;;;4997610;28;20056;-61
2022/01/22 11:33:33;;;;;;;13.18;4.18;;;7.30;99.90;;;;;;5016496;28;20041;-62
2022/01/22 11:36:09;;;;;;;13.77;3.03;;;7.30;99.90;;;;;;4978674;28;21015;-60
2022/01/22 11:38:38;;;;;;;10.43;2.83;;;7.40;99.90;;;;;;5009160;28;20052;-60
2022/01/22 11:41:06;;;;;;;9.68;3.42;;;7.30;99.90;;;;;;4986447;28;20029;-60
2022/01/22 11:44:11;;;;;;;12.07;3.33;;;7.40;99.90;;;;;;4994576;28;20484;-60
2022/01/22 11:46:44;;;;;;;8.70;2.40;;;7.40;99.90;;;;;;4995511;28;20034;-60
2022/01/22 11:49:15;;;;;;;8.18;2.65;;;7.40;99.90;;;;;;4981199;28;20086;-61
2022/01/22 11:51:49;;;;;;;7.72;2.13;;;7.40;99.90;;;;;;4994996;28;20128;-61
2022/01/22 11:54:17;;;;;;;7.13;2.60;;;7.40;99.90;;;;;;5011467;28;20054;-60
2022/01/22 11:56:47;;;;;;;10.55;2.47;;;7.40;99.90;;;;;;5008946;28;20476;-60
2022/01/22 11:59:16;;;;;;;7.68;2.33;;;7.90;99.90;;;;;;5026797;28;20386;-60
2022/01/22 12:01:46;;;;;;;7.97;2.28;;;7.40;99.90;;;;;;4985190;28;20042;-61
2022/01/22 12:04:16;;;;;;;11.25;3.08;;;7.40;99.90;;;;;;5011725;28;20038;-60
2022/01/22 12:07:03;;;;;;;6.68;2.60;;;7.40;99.90;;;;;;4991270;28;20080;-61
2022/01/22 12:09:32;;;;;;;10.30;2.10;;;7.40;99.90;;;;;;4986882;28;20061;-61
2022/01/22 12:15:03;;;;;;;8.55;2.28;;;7.40;99.90;;;;;;4990123;28;20046;-61
2022/01/22 12:17:59;;;;;;;15.85;2.90;;;7.30;99.90;;;;;;4994665;28;20033;-61
2022/01/22 12:23:06;;;;;;;8.93;2.13;;;7.30;99.90;;;;;;4995933;28;20058;-62
2022/01/22 12:25:35;;;;;;;10.15;2.50;;;7.30;99.90;;;;;;4993752;28;20475;-62
2022/01/22 12:28:02;;;;;;;10.05;3.22;;;7.30;99.90;;;;;;4993136;28;20077;-62
2022/01/22 12:30:36;;;;;;;7.07;2.60;;;7.30;99.90;;;;;;4977037;28;20435;-61
2022/01/22 12:33:02;;;;;;;8.77;2.20;;;7.30;99.90;;;;;;4993337;28;20042;-62
2022/01/22 12:35:48;;;;;;;10.05;2.42;;;7.30;99.90;;;;;;4977674;28;20048;-61
2022/01/22 12:38:28;;;;;;;;;;;7.30;99.90;;;;;;4977151;28;20053;-61
2022/01/22 12:41:00;;;;;;;6.35;1.95;;;7.30;99.90;;;;;;4992881;28;20034;-61
2022/01/22 12:43:32;;;;;;;10.73;3.05;;;7.30;99.90;;;;;;4977173;28;20038;-62
2022/01/22 12:46:00;;;;;;;11.38;2.03;;;7.30;99.90;;;;;;5008719;28;20124;-61
2022/01/22 12:48:34;;;;;;;10.32;2.35;;;7.20;99.90;;;;;;4975422;28;20048;-62
2022/01/22 12:51:03;;;;;;;10.80;2.17;;;7.20;99.90;;;;;;5003858;28;20042;-61
2022/01/22 12:53:29;;;;;;;6.85;1.95;;;7.20;99.90;;;;;;5011026;28;20519;-61
2022/01/22 12:58:21;;;;;;;4.55;1.60;;;7.10;99.90;;;;;;4992416;28;20057;-61
2022/01/22 13:00:47;;;;;;;10.43;2.17;;;7.10;99.90;;;;;;4992553;28;20046;-62
2022/01/22 13:03:13;;;;;;;10.30;2.33;;;7.10;99.90;;;;;;4977170;28;20120;-62
2022/01/22 13:05:45;;;;;;;6.93;1.63;;;7.10;99.90;;;;;;4993136;28;20125;-61
2022/01/22 13:08:11;;;;;;;6.78;1.58;;;7.10;99.90;;;;;;5010966;28;20046;-61
2022/01/22 13:10:44;;;;;;;5.88;1.95;;;7.10;99.90;;;;;;4993689;28;20534;-61
2022/01/22 13:13:14;;;;;;;7.75;1.40;;;7.10;99.90;;;;;;4996836;28;20038;-61
2022/01/22 13:15:40;;;;;;;5.65;1.40;;;7.10;99.90;;;;;;4983958;28;20052;-61
2022/01/22 13:18:06;;;;;;;5.60;1.88;;;7.10;99.90;;;;;;4984659;28;20070;-60
2022/01/22 13:20:34;;;;;;;6.03;1.50;;;7.20;99.90;;;;;;4979667;28;20461;-60
2022/01/22 13:23:13;;;;;;;9.85;2.45;;;7.20;99.90;;;;;;4990532;28;20054;-60
2022/01/22 13:25:38;;;;;;;8.45;1.42;;;7.20;99.90;;;;;;4991115;28;20153;-60
2022/01/22 13:28:10;;;;;;;8.20;1.63;;;7.20;99.90;;;;;;5006655;28;20117;-60
2022/01/22 13:30:42;;;;;;;5.65;1.77;;;7.10;99.90;;;;;;4990547;28;20038;-61
2022/01/22 13:33:23;;;;;;;8.80;1.65;;;7.10;99.90;;;;;;4989799;28;20052;-61
2022/01/22 13:45:01;;;;;;;10.93;1.83;;;7.10;99.90;;;;;;4990239;28;20125;-61
2022/01/22 13:49:26;;;;;;;10.10;2.28;;;7.00;99.90;;;;;;4998720;28;20057;-61
2022/01/22 13:51:54;;;;;;;6.55;1.90;;;7.00;99.90;;;;;;4989602;28;20057;-61
2022/01/22 13:54:27;;;;;;;8.30;1.73;;;7.00;99.90;;;;;;4973424;28;20037;-61
2022/01/22 13:56:57;;;;;;;6.90;1.85;;;7.10;99.90;;;;;;4989638;28;20045;-61
2022/01/22 13:59:28;;;;;;;5.47;1.70;;;7.10;99.90;;;;;;4990287;28;20068;-61
2022/01/22 14:02:11;;;;;;;8.82;1.55;;;7.10;99.90;;;;;;4984600;28;20050;-61
2022/01/22 14:04:38;;;;;;;6.10;2.08;;;7.10;99.90;;;;;;4970340;28;20050;-61
2022/01/22 14:07:27;;;;;;;7.32;2.63;;;7.10;99.90;;;;;;4970443;28;20055;-61
2022/01/22 14:09:59;;;;;;;4.82;1.50;;;7.10;99.90;;;;;;4969304;28;20077;-61
2022/01/22 14:12:28;;;;;;;7.57;2.63;;;7.10;99.90;;;;;;5007531;28;20054;-61
2022/01/22 14:15:26;;;;;;;6.00;1.60;;;7.10;99.90;;;;;;4989371;28;20054;-61
2022/01/22 14:18:22;;;;;;;4.57;1.50;;;7.10;99.90;;;;;;4988057;28;20046;-61
2022/01/22 14:20:50;;;;;;;6.38;1.60;;;7.10;99.90;;;;;;4990659;28;20050;-60
2022/01/22 14:23:17;;;;;;;8.55;1.83;;;7.10;99.90;;;;;;4989262;28;20050;-61
2022/01/22 14:26:09;;;;;;;10.43;2.15;;;7.00;99.90;;;;;;4989425;28;20038;-60
2022/01/22 14:28:44;;;;;;;5.00;1.73;;;7.00;99.90;;;;;;4989786;28;20403;-61
2022/01/22 14:31:25;;;;;;;;;;;6.90;99.90;;;;;;4970220;28;20054;-61
2022/01/22 14:33:52;;;;;;;7.35;1.55;;;6.90;99.90;;;;;;5054774;28;19928;-61
2022/01/22 14:36:26;;;;;;;10.98;1.90;;;6.80;99.90;;;;;;5012031;28;20045;-61
2022/01/22 14:39:03;;;;;;;7.68;1.83;;;6.80;99.90;;;;;;4990660;28;20053;-61
2022/01/22 14:44:36;;;;;;;9.50;1.70;;;6.80;99.90;;;;;;5078934;28;20092;-61
2022/01/22 14:47:13;;;;;;;10.02;1.90;;;6.80;99.90;;;;;;5078550;28;20049;-61
2022/01/22 14:49:47;;;;;;;10.48;2.42;;;6.80;99.90;;;;;;5008511;28;20090;-61
2022/01/22 14:52:14;;;;;;;;;;;6.70;99.90;;;;;;4976451;28;20403;-61
2022/01/22 14:54:42;;;;;;;6.43;1.27;;;6.70;99.90;;;;;;4992200;28;19977;-61
2022/01/22 14:57:10;;;;;;;9.90;1.92;;;6.90;99.90;;;;;;4992701;28;20068;-61
2022/01/22 14:59:38;;;;;;;6.25;1.83;;;6.70;99.90;;;;;;4992491;28;20429;-61